Impacts METAR Board
IDs:

KSFO - San Francisco Intl, CA, US

Updated at: 0700 UTC 24 Sep 2018
Potential Impact None Slight Moderate High
Time 23/19Z 23/20Z 23/21Z 23/22Z 23/23Z 24/00Z 24/01Z 24/02Z 24/03Z 24/04Z 24/05Z 24/06Z 24/07Z
Temp67 67 67 65 67 65 62 58 56 55 56 56 54
Dewpt51 52 52 51 49 50 50 49 50 50 49 49 48
Altim29.92 29.90 29.89 29.87 29.87 29.86 29.84 29.84 29.85 29.86 29.86 29.85 29.85
VIS10 10 10 10 10 10 10 10 10 10 10 10 10
CIG-- -- -- -- -- -- -- -- -- -- -- -- --
CoverFEWFEWFEWSCTFEWFEWFEWFEWFEWFEWCLRCLRCLR
FltCatVFRVFRVFRVFRVFRVFRVFRVFRVFRVFRVFRVFRVFR
WX--------------------------
WDir310310300300290300290300310290290300290
WSpd14 14 16 14 13 15 15 11 11 10 10 8 7
WGst-- -- -- -- -- -- -- -- -- -- -- -- --
Raw hourly METARs
KSFO 231856Z 31014KT 10SM FEW009 FEW200 19/11 A2992 RMK AO2 SLP131 T01940106 $
KSFO 231956Z 31014KT 10SM FEW009 FEW200 19/11 A2990 RMK AO2 SLP125 T01940111 $
KSFO 232056Z 30016KT 10SM FEW008 FEW200 19/11 A2989 RMK AO2 SLP121 T01940111 58011 $
KSFO 232156Z 30014KT 10SM FEW008 SCT200 18/11 A2987 RMK AO2 SLP115 T01830106 $
KSFO 232256Z 29013KT 10SM FEW008 FEW200 19/09 A2987 RMK AO2 SLP113 T01940094 $
KSFO 232356Z 30015KT 10SM FEW008 FEW200 18/10 A2986 RMK AO2 SLP110 T01830100 10206 20178 56011 $
KSFO 240056Z 29015KT 10SM FEW008 FEW200 17/10 A2984 RMK AO2 SLP104 T01670100 $
KSFO 240156Z 30011KT 10SM FEW010 FEW200 14/09 A2984 RMK AO2 SLP104 T01440094 $
KSFO 240256Z 31011KT 10SM FEW011 FEW200 13/10 A2985 RMK AO2 SLP107 T01330100 55002 $
KSFO 240356Z 29010KT 10SM FEW011 13/10 A2986 RMK AO2 SLP110 T01280100 $
KSFO 240456Z 29010KT 10SM CLR 13/09 A2986 RMK AO2 SLP109 T01330094 $
KSFO 240556Z 30008KT 10SM CLR 13/09 A2985 RMK AO2 SLP108 T01330094 10183 20128 50001 $
KSFO 240656Z 29007KT 10SM CLR 12/09 A2985 RMK AO2 SLP109 T01220089 $



Page loaded:  07:10 UTC  |   12:10 AM Pacific  |   01:10 AM Mountain  |   02:10 AM Central  |   03:10 AM Eastern

 

ADVISORIES

FORECASTS

FORECASTS

OBSERVATIONS

USER TOOLS

ABOUT US